Logo AVAMET
Benvolgut visitant, si us plau, ingressa Recuperar contrasenya

Picassent

Dades diàries. Acumulats / Últims 30 dies disponibles

Data Temperatura (°C) Humitat rel. (%) Pressió rel. (hPa) Vent (km/h) Precipitació
Mínima Mitjana Màxima Amplitud
tèrmica
Mínima Mitjana Màxima Mínima Mitjana Màxima Predom. Mitjana Ràfega
màxima
Total
(mm)
Índex-n
Mínima Mitjana Màxima Mínima Mitjana Màxima n
0 a 1
P0 max
mm 5'
Dades mensuals acumulades fins l'últim dia disponible
11/2019 6,4 11,6 21,1 15,2 15,4 19,5 28,3 21,9 24 53 89 1.001 1.011 1.021   8,3 52,5 8,1
Dades anuals acumulades fins l'últim dia disponible
2019 1,8 14,9 27,2 19,0 11,9 23,6 41,3 39,5 15 63 98 994 1.018 1.037   6,4 62,2 269,5
Últims 30 dies disponibles
21-11-2019 9,1     12,6     15,9 6,8 58 72 82 1.009 1.010 1.011 SO 4,7 21,6 0,0
20-11-2019 8,3     12,0     16,9 8,6 42 59 76 1.010 1.013 1.016 OSO 4,7 20,9 0,5
19-11-2019 6,4     11,1     17,4 11,0 33 51 62 1.015 1.017 1.019 OSO 5,8 27,4 0,0
18-11-2019 9,2     12,0     16,3 7,1 38 58 75 1.008 1.012 1.017 OSO 6,1 22,6 0,0
17-11-2019 7,1     11,1     15,4 8,3 43 57 71 1.010 1.013 1.016 O 9,5 39,6 0,0
16-11-2019 7,2     11,1     17,3 10,1 28 51 71 1.008 1.012 1.016 ONO 6,7 26,3 0,0
15-11-2019 9,3     11,9     16,0 6,7 39 54 67 1.001 1.004 1.007 ONO 8,5 42,0 0,3
14-11-2019 10,3     13,8     16,9 6,6 46 59 75 1.001 1.003 1.010 O 8,3 50,3 0,0
13-11-2019 12,7     14,8     19,6 6,9 46 72 89 1.006 1.009 1.012 SSO 6,0 39,6 7,3 0,33 2,20
12-11-2019 10,7     14,7     19,8 9,1 28 41 51 1.010 1.012 1.014 ONO 6,1 32,7 0,0
11-11-2019 9,3     13,5     18,2 8,9 35 46 54 1.012 1.014 1.016 NO 10,4 46,1 0,0
10-11-2019 10,8     13,7     17,2 6,4 31 46 67 1.012 1.013 1.015 ONO 8,7 44,2 0,0
09-11-2019 11,0     14,6     18,6 7,6 33 45 63 1.015 1.018 1.020 ONO 10,1 39,6 0,0
08-11-2019 9,9     13,3     17,1 7,2 33 45 59 1.010 1.014 1.018 ONO 10,3 43,1 0,0
07-11-2019 12,9     16,3     21,9 9,0 24 50 66 1.008 1.011 1.014 O 8,6 42,0 0,0
06-11-2019 12,9     16,7     21,9 9,0 28 45 61 1.012 1.014 1.015 ONO 8,2 30,9 0,0
05-11-2019 14,8     17,6     20,2 5,4 35 49 62 1.006 1.009 1.013 ONO 11,5 52,5 0,0
04-11-2019 12,2     20,4     24,1 11,9 40 52 65 1.007 1.010 1.012 O 10,6 49,2 0,0
03-11-2019 18,6     20,9     24,2 5,6 28 48 70 1.002 1.005 1.012 ONO 12,8 50,3 0,0
02-11-2019 21,1     22,9     26,3 5,2 41 56 67 1.005 1.010 1.015 ONO 9,6 37,0 0,0
01-11-2019 19,6     23,4     28,3 8,7 45 59 71 1.015 1.017 1.021 O 8,0 35,2 0,0
31-10-2019 19,3     22,7     26,9 7,6 40 57 68 1.019 1.021 1.022 OSO 6,1 26,3 0,0
30-10-2019 15,8     20,2     25,6 9,8 47 69 83 1.020 1.021 1.022 SO 4,4 16,5 0,0
29-10-2019 14,6     18,6     24,7 10,1 54 78 92 1.016 1.018 1.020 OSO 3,2 17,9 0,0
28-10-2019 13,9     17,4     21,4 7,5 70 84 92 1.017 1.019 1.022 S 3,0 11,8 0,0
27-10-2019 14,8     19,3     22,1 7,3 66 78 89 1.021 1.022 1.024 S 4,6 17,2 0,0
26-10-2019 12,9     17,8     22,4 9,5 57 72 85 1.021 1.022 1.023 SO 4,1 16,5 0,0
25-10-2019 14,7     18,2     23,7 9,0 41 61 76 1.021 1.023 1.024 SO 5,7 23,7 0,0
24-10-2019 12,1     16,7     22,7 10,6 41 59 76 1.012 1.016 1.023 ONO 6,9 25,5 0,0
23-10-2019 11,9     14,6     18,6 6,7 48 66 81 1.006 1.009 1.013 OSO 6,4 28,7
Últims 13 mesos disponibles
10/2019 11,9 16,1 20,4 20,1 16,2 24,8 34,8 22,9 42 68 84 1.009 1.018 1.023 SO 5,3 29,0 26,6
09/2019 15,5 20,3 23,2 23,8 21,6 27,8 34,1 18,6 35 71 84 1.011 1.018 1.025 SO 6,2 49,2 90,8
08/2019 18,2 22,7 27,2 26,5 26,7 30,7 41,3 23,1 39 69 79 1.011 1.016 1.021 S 6,1 40,0 6,6
07/2019 21,4 23,0 24,9 26,9 27,3 30,9 37,4 16,0 43 65 76 1.006 1.015 1.022 SSO 6,2 50,3 6,6
06/2019 13,7 18,4 22,4 22,8 20,9 27,1 34,6 20,9 35 63 77 1.009 1.016 1.023 S 6,3 42,0 0,0
05/2019 9,8 14,7 20,7 19,0 18,9 23,2 32,4 22,6 47 64 82 1.006 1.016 1.025 SSO 6,5 47,4 11,3
04/2019 8,6 11,6 14,7 15,4 15,2 19,9 29,9 21,3 37 65 96 1.000 1.014 1.026 SO 7,2 47,7 117,3
03/2019 6,9 9,8 15,7 14,7 12,8 20,0 28,6 21,7 38 56 88 1.011 1.024 1.031 SO 5,9 49,2 19,0
02/2019 4,7 7,5 10,9 12,3 12,5 17,8 26,1 21,4 33 62 78 996 1.026 1.035 OSO 6,1 62,2 0,0
01/2019 1,8 7,0 12,7 11,3 11,9 16,8 20,2 18,4 39 56 76 1.003 1.020 1.031 SO 6,5 59,0 0,0
12/2018 4,7 9,6 14,5 13,3 14,2 18,1 22,8 18,1 50 67 90 1.009 1.026 1.031 O 5,7 46,1 12,2
11/2018 7,3 11,8 15,6 14,7 14,3 18,3 24,1 16,8 50 72 96 1.003 1.016 1.025 O 5,8 51,1 136,3
10/2018 7,6 15,2 19,6 19,0 13,7 22,7 28,3 20,7 43 69 90 1.002 1.016 1.027 5,6 51,0 177,6
Tots els anys disponibles
2018 2,4 14,9 26,9 18,3 5,9 21,9 36,1 33,7 36 66 96 994 1.017 1.037 O 1,0 74,0 751,9
Temperatura (°C)
Humitat relativa (%)
Velocitat del vent i ràfega màxima (km/h)
Direcció del vent (°)
Pressió (hPa)
Precipitació (mm)
Nota sobre les dades: s'avisa a l'usuari de la provisionalitat i no oficialitat d'aquestes dades
Logo AVAMET blanc
Web allotjada a Sollutia
Llicència de Creative CommonsLa web d'AVAMET i els seus continguts estan subjectes a una llicència de
Reconeixement - No Comercial - Compartir igual
Últimes estacions: Faura (Inforatge), Benifairó de les Valls (Inforatge), Xàbia - Les Valls (Soci), Xàbia - Alt de la Granadella (Soci), Villena - Sierra de Salinas (Soci), Sueca - Centre (Inforatge) - - -